Time;durP1;ratioP1;P1;durP2;ratioP2;P2;SDS_P1;SDS_P2;PMS_P1;PMS_P2;Temp;Humidity;BMP_temperature;BMP_pressure;BME280_temperature;BME280_humidity;BME280_pressure;Samples;Min_cycle;Max_cycle;Signal;HPM_P1;HPM_P2
2022/12/25 00:00:21;;;;;;;3.03;2.27;;;10.70;99.90;;;;;;5051967;28;20186;-70
2022/12/25 00:02:47;;;;;;;3.47;1.80;;;10.70;99.90;;;;;;5052713;28;20172;-70
2022/12/25 00:05:12;;;;;;;4.93;2.43;;;10.90;99.90;;;;;;5055440;28;20172;-70
2022/12/25 00:07:38;;;;;;;6.03;2.37;;;10.90;99.90;;;;;;5056476;28;20191;-69
2022/12/25 00:10:04;;;;;;;2.83;1.93;;;10.90;99.90;;;;;;5055170;28;20593;-68
2022/12/25 00:12:29;;;;;;;2.80;2.30;;;11.00;99.90;;;;;;5054922;28;20176;-69
2022/12/25 00:14:55;;;;;;;3.40;2.40;;;10.90;99.90;;;;;;5056741;28;20413;-69
2022/12/25 00:17:21;;;;;;;2.80;1.77;;;11.00;99.90;;;;;;5055778;28;20600;-69
2022/12/25 00:19:46;;;;;;;3.23;2.10;;;11.10;99.90;;;;;;5056222;28;20174;-70
2022/12/25 00:22:12;;;;;;;5.13;2.20;;;11.00;99.90;;;;;;5054749;28;20646;-69
2022/12/25 00:24:37;;;;;;;3.53;2.30;;;10.90;99.90;;;;;;5055768;28;20273;-69
2022/12/25 00:27:03;;;;;;;2.83;2.00;;;11.00;99.90;;;;;;5055872;28;20182;-69
2022/12/25 00:29:28;;;;;;;2.63;2.30;;;11.00;99.90;;;;;;5056225;28;20163;-69
2022/12/25 00:31:54;;;;;;;6.30;2.30;;;11.10;99.90;;;;;;5055516;28;20171;-69
2022/12/25 00:34:20;;;;;;;3.90;2.70;;;11.00;99.90;;;;;;5055786;28;20171;-69
2022/12/25 00:36:49;;;;;;;4.77;2.50;;;11.10;99.90;;;;;;5055595;28;20244;-69
2022/12/25 00:39:15;;;;;;;4.20;2.80;;;11.20;99.90;;;;;;5055324;28;20896;-69
2022/12/25 00:44:25;;;;;;;4.00;2.20;;;11.30;99.90;;;;;;5055737;28;20186;-68
2022/12/25 00:46:50;;;;;;;3.13;2.70;;;11.40;99.90;;;;;;5053821;28;20921;-68
2022/12/25 00:49:16;;;;;;;2.93;2.23;;;11.40;99.90;;;;;;5054717;28;20210;-69
2022/12/25 00:51:41;;;;;;;3.80;2.60;;;11.40;99.90;;;;;;5055576;28;20183;-68
2022/12/25 00:54:07;;;;;;;5.63;2.90;;;11.50;99.90;;;;;;5055779;28;20193;-67
2022/12/25 00:56:33;;;;;;;4.23;3.03;;;11.50;99.90;;;;;;5055475;28;20201;-69
2022/12/25 00:58:58;;;;;;;2.70;2.37;;;11.60;99.90;;;;;;5055032;28;20641;-70
2022/12/25 01:01:24;;;;;;;5.87;3.20;;;11.70;99.90;;;;;;5054855;28;20282;-70
2022/12/25 01:03:49;;;;;;;9.23;2.63;;;11.70;99.90;;;;;;5056002;28;20206;-69
2022/12/25 01:06:15;;;;;;;3.90;2.87;;;11.80;99.90;;;;;;5055163;28;20166;-70
2022/12/25 01:11:26;;;;;;;6.03;2.70;;;11.60;99.90;;;;;;5055255;28;20161;-70
2022/12/25 01:13:51;;;;;;;4.57;2.77;;;11.50;99.90;;;;;;5042281;28;20408;-70
2022/12/25 01:16:17;;;;;;;2.90;2.20;;;11.30;99.90;;;;;;5047293;28;20300;-70
2022/12/25 01:18:45;;;;;;;3.57;2.83;;;11.40;99.90;;;;;;5054895;28;20193;-69
2022/12/25 01:21:14;;;;;;;2.97;2.60;;;11.40;99.90;;;;;;5054801;28;20451;-71
2022/12/25 01:23:40;;;;;;;5.10;2.03;;;11.40;99.90;;;;;;5054956;28;20407;-70
2022/12/25 01:26:08;;;;;;;4.40;2.70;;;11.30;99.90;;;;;;5055102;28;20401;-70
2022/12/25 01:28:34;;;;;;;3.87;2.70;;;11.20;99.90;;;;;;5053373;28;20812;-70
2022/12/25 01:31:00;;;;;;;3.77;2.90;;;11.30;99.90;;;;;;5054504;28;20484;-70
2022/12/25 01:33:27;;;;;;;3.23;2.77;;;11.40;99.90;;;;;;5054701;28;20400;-70
2022/12/25 01:35:53;;;;;;;3.23;2.40;;;11.60;99.90;;;;;;5054665;28;20406;-70
2022/12/25 01:38:19;;;;;;;4.47;3.00;;;11.70;99.90;;;;;;5053209;28;20966;-69
2022/12/25 01:40:46;;;;;;;3.50;2.47;;;11.70;99.90;;;;;;5054503;28;20310;-70
2022/12/25 01:43:21;;;;;;;4.20;2.50;;;11.70;99.90;;;;;;5054524;28;20508;-70
2022/12/25 01:45:48;;;;;;;2.77;2.57;;;11.80;99.90;;;;;;5053019;28;20220;-70
2022/12/25 01:48:21;;;;;;;4.30;3.10;;;11.80;99.90;;;;;;5053527;28;20448;-69
2022/12/25 01:50:57;;;;;;;2.67;2.17;;;11.80;99.90;;;;;;5053380;28;20405;-69
2022/12/25 01:53:23;;;;;;;3.47;3.17;;;11.80;99.90;;;;;;5053924;28;20390;-69
2022/12/25 01:55:52;;;;;;;5.37;3.10;;;11.80;99.90;;;;;;5053854;28;20505;-70
2022/12/25 01:58:18;;;;;;;6.07;3.30;;;11.50;99.90;;;;;;5053170;28;20437;-69
2022/12/25 02:00:44;;;;;;;4.23;3.00;;;11.50;99.90;;;;;;5052696;28;20456;-70
2022/12/25 02:03:09;;;;;;;4.60;3.20;;;11.30;99.90;;;;;;5053466;28;20198;-70
2022/12/25 02:05:35;;;;;;;4.67;3.40;;;11.10;99.90;;;;;;5053477;28;20814;-70
2022/12/25 02:08:06;;;;;;;5.57;4.80;;;11.10;99.90;;;;;;5053081;28;20190;-70
2022/12/25 02:10:32;;;;;;;5.23;3.90;;;11.00;99.90;;;;;;5053742;28;20164;-70
2022/12/25 02:12:59;;;;;;;5.43;4.93;;;11.10;99.90;;;;;;5053023;28;20898;-70
2022/12/25 02:15:33;;;;;;;7.03;5.53;;;11.20;99.90;;;;;;5051545;28;20179;-70
2022/12/25 02:18:15;;;;;;;6.17;5.67;;;11.00;99.90;;;;;;5052811;28;20429;-70
2022/12/25 02:21:01;;;;;;;5.70;5.20;;;11.10;99.90;;;;;;5052883;28;20800;-69
2022/12/25 02:23:57;;;;;;;6.43;5.50;;;11.00;99.90;;;;;;5053250;28;20386;-70
2022/12/25 02:26:28;;;;;;;6.70;5.10;;;11.10;99.90;;;;;;5052949;28;20385;-70
2022/12/25 02:29:28;;;;;;;7.43;6.43;;;11.20;99.90;;;;;;5052885;28;20378;-70
2022/12/25 02:32:17;;;;;;;7.20;6.20;;;11.20;99.90;;;;;;5052312;28;20805;-70
2022/12/25 02:34:45;;;;;;;6.10;5.47;;;11.20;99.90;;;;;;5052099;28;20504;-70
2022/12/25 02:37:16;;;;;;;5.57;4.87;;;11.10;99.90;;;;;;5053961;28;20989;-70
2022/12/25 02:39:57;;;;;;;6.13;5.53;;;11.10;99.90;;;;;;5053152;28;20393;-70
2022/12/25 03:06:41;;;;;;;5.90;5.30;;;11.10;99.90;;;;;;5052730;28;20474;-70
2022/12/25 03:07:42;;;;;;;7.07;6.10;;;11.30;99.90;;;;;;5053285;28;20419;-70
2022/12/25 03:13:13;;;;;;;6.00;5.50;;;11.10;99.90;;;;;;5052353;28;20386;-69
2022/12/25 03:18:27;;;;;;;5.67;5.17;;;11.20;99.90;;;;;;5052736;28;20420;-70
2022/12/25 03:26:58;;;;;;;6.63;6.00;;;11.20;99.90;;;;;;5053572;28;20798;-70
2022/12/25 03:32:25;;;;;;;9.30;5.57;;;11.20;99.90;;;;;;5054282;28;20389;-70
2022/12/25 03:35:21;;;;;;;5.70;5.10;;;11.20;99.90;;;;;;5054559;28;20389;-70
2022/12/25 04:37:11;;;;;;;5.83;5.23;;;11.20;99.90;;;;;;5055597;28;20498;-71
2022/12/25 04:39:36;;;;;;;5.80;4.40;;;11.20;99.90;;;;;;5055210;28;20413;-71
2022/12/25 04:42:02;;;;;;;6.13;4.40;;;11.10;99.90;;;;;;5070664;28;20189;-71
2022/12/25 04:44:28;;;;;;;6.47;5.20;;;11.00;99.90;;;;;;5075229;28;20165;-71
2022/12/25 04:46:53;;;;;;;5.67;5.17;;;11.00;99.90;;;;;;5073855;28;20694;-71
2022/12/25 04:49:19;;;;;;;6.20;5.40;;;11.00;99.90;;;;;;5074998;28;20579;-71
2022/12/25 04:51:44;;;;;;;4.53;4.13;;;10.90;99.90;;;;;;5074729;28;20197;-71
2022/12/25 04:54:10;;;;;;;5.17;4.67;;;10.80;99.90;;;;;;5074521;28;20174;-71
2022/12/25 04:56:35;;;;;;;5.30;4.80;;;10.80;99.90;;;;;;5074484;28;20644;-71
2022/12/25 04:59:01;;;;;;;5.20;4.47;;;10.80;99.90;;;;;;5074512;28;20670;-71
2022/12/25 05:01:26;;;;;;;5.63;3.90;;;10.80;99.90;;;;;;5074364;28;20295;-71
2022/12/25 05:03:52;;;;;;;5.40;4.07;;;10.90;99.90;;;;;;5074268;28;20173;-71
2022/12/25 05:06:18;;;;;;;5.43;4.40;;;10.90;99.90;;;;;;5074584;28;20249;-71
2022/12/25 05:08:43;;;;;;;4.40;4.00;;;10.90;99.90;;;;;;5074473;28;20191;-71
2022/12/25 05:11:11;;;;;;;4.90;4.50;;;10.90;99.90;;;;;;5070866;28;20180;-71
2022/12/25 05:13:37;;;;;;;7.00;4.93;;;10.90;99.90;;;;;;5074268;28;20505;-71
2022/12/25 05:16:08;;;;;;;5.00;4.50;;;10.90;99.90;;;;;;5074283;28;20400;-71
2022/12/25 05:18:34;;;;;;;5.30;4.80;;;10.90;99.90;;;;;;5053966;28;20261;-71
2022/12/25 05:20:59;;;;;;;4.60;4.10;;;10.90;99.90;;;;;;5053930;28;20453;-71
2022/12/25 05:23:25;;;;;;;5.10;4.07;;;11.00;99.90;;;;;;5053943;28;20879;-71
2022/12/25 05:25:50;;;;;;;5.60;4.67;;;10.90;99.90;;;;;;5054226;28;20252;-71
2022/12/25 05:28:16;;;;;;;4.80;4.20;;;11.00;99.90;;;;;;5052723;28;20189;-71
2022/12/25 05:30:42;;;;;;;3.80;3.50;;;11.00;99.90;;;;;;5054054;28;20245;-71
2022/12/25 05:33:07;;;;;;;3.13;2.83;;;11.00;99.90;;;;;;5053865;28;20175;-71
2022/12/25 05:35:36;;;;;;;5.47;3.50;;;11.10;99.90;;;;;;5054067;28;20575;-72
2022/12/25 05:38:01;;;;;;;3.70;3.10;;;11.20;99.90;;;;;;5054289;28;20210;-71
2022/12/25 05:40:27;;;;;;;3.43;2.97;;;11.10;99.90;;;;;;5052560;28;20549;-71
2022/12/25 05:42:52;;;;;;;3.87;3.57;;;11.20;99.90;;;;;;5053118;28;20181;-71
2022/12/25 05:45:18;;;;;;;3.80;3.37;;;11.20;99.90;;;;;;5053903;28;20191;-70
2022/12/25 05:47:43;;;;;;;3.00;2.80;;;11.20;99.90;;;;;;5065654;28;20206;-71
2022/12/25 05:50:09;;;;;;;4.37;3.97;;;11.20;99.90;;;;;;5074490;28;20591;-71
2022/12/25 05:52:35;;;;;;;4.37;3.60;;;11.20;99.90;;;;;;5073506;28;20165;-71
2022/12/25 05:55:00;;;;;;;7.33;4.73;;;11.20;99.90;;;;;;5072396;28;20827;-71
2022/12/25 05:57:30;;;;;;;6.83;4.13;;;11.20;99.90;;;;;;5073473;28;20213;-71
2022/12/25 05:59:56;;;;;;;4.70;3.63;;;11.10;99.90;;;;;;5073519;28;20164;-71
2022/12/25 06:02:22;;;;;;;5.43;4.17;;;11.20;99.90;;;;;;5072775;28;20437;-71
2022/12/25 06:04:48;;;;;;;6.70;4.10;;;11.20;99.90;;;;;;5072104;28;20176;-71
2022/12/25 06:07:13;;;;;;;7.10;4.93;;;11.20;99.90;;;;;;5073929;28;20431;-71
2022/12/25 06:09:39;;;;;;;6.47;5.57;;;11.20;99.90;;;;;;5072267;28;20171;-71
2022/12/25 06:12:04;;;;;;;6.27;5.23;;;11.20;99.90;;;;;;5073510;28;20170;-72
2022/12/25 06:14:30;;;;;;;8.50;5.83;;;11.20;99.90;;;;;;5073289;28;20162;-71
2022/12/25 06:16:56;;;;;;;5.43;4.57;;;11.20;99.90;;;;;;5072747;28;20200;-71
2022/12/25 06:19:21;;;;;;;5.07;4.57;;;11.20;99.90;;;;;;5072814;28;20698;-71
2022/12/25 06:21:47;;;;;;;4.73;3.83;;;11.30;99.90;;;;;;5073088;28;20221;-71
2022/12/25 06:24:13;;;;;;;5.80;4.80;;;11.30;99.90;;;;;;5073272;28;20182;-71
2022/12/25 06:26:39;;;;;;;5.17;4.67;;;11.40;99.90;;;;;;5073453;28;20641;-71
2022/12/25 06:29:05;;;;;;;8.20;4.90;;;11.30;99.90;;;;;;5073569;28;20420;-71
2022/12/25 06:31:30;;;;;;;5.27;4.27;;;11.30;99.90;;;;;;5073203;28;20533;-71
2022/12/25 06:33:56;;;;;;;6.20;5.37;;;11.30;99.90;;;;;;5072427;28;20166;-71
2022/12/25 06:36:28;;;;;;;6.77;5.73;;;11.20;99.90;;;;;;5073078;28;20512;-70
2022/12/25 06:38:53;;;;;;;6.90;5.10;;;11.10;99.90;;;;;;5072588;28;20197;-71
2022/12/25 06:41:24;;;;;;;8.53;5.97;;;11.10;99.90;;;;;;5072847;28;20441;-71
2022/12/25 06:43:52;;;;;;;7.80;5.03;;;11.10;99.90;;;;;;5073379;28;20973;-71
2022/12/25 06:46:19;;;;;;;6.60;4.00;;;11.20;99.90;;;;;;5072646;28;20778;-71
2022/12/25 06:48:48;;;;;;;7.00;4.80;;;11.20;99.90;;;;;;5070793;28;20543;-71
2022/12/25 06:51:15;;;;;;;5.03;4.53;;;11.20;99.90;;;;;;5072727;28;20427;-71
2022/12/25 06:53:40;;;;;;;5.70;4.50;;;11.20;99.90;;;;;;5071464;28;20400;-71
2022/12/25 06:56:09;;;;;;;6.20;4.60;;;11.10;99.90;;;;;;5073289;28;20557;-71
2022/12/25 06:58:34;;;;;;;6.53;4.93;;;11.20;99.90;;;;;;5072544;28;20187;-71
2022/12/25 07:01:13;;;;;;;5.80;4.33;;;11.10;99.90;;;;;;5072406;28;20933;-71
2022/12/25 07:03:39;;;;;;;6.63;4.27;;;11.10;99.90;;;;;;5071954;28;20544;-71
2022/12/25 07:06:05;;;;;;;7.30;4.10;;;11.00;99.90;;;;;;5072396;28;20462;-71
2022/12/25 07:08:31;;;;;;;4.77;3.70;;;11.00;99.90;;;;;;5072132;28;20531;-71
2022/12/25 07:10:56;;;;;;;4.70;4.20;;;11.10;99.90;;;;;;5072387;28;20272;-71
2022/12/25 07:13:22;;;;;;;4.90;4.40;;;11.20;99.90;;;;;;5072083;28;20242;-71
2022/12/25 07:15:53;;;;;;;7.07;4.60;;;11.20;99.90;;;;;;5072314;28;20170;-71
2022/12/25 07:18:19;;;;;;;5.57;4.70;;;11.20;99.90;;;;;;5071730;28;20208;-71
2022/12/25 07:20:44;;;;;;;5.73;4.10;;;11.20;99.90;;;;;;5068967;28;20440;-71
2022/12/25 07:23:10;;;;;;;5.47;4.53;;;11.20;99.90;;;;;;5072530;28;20173;-71
2022/12/25 07:25:36;;;;;;;5.90;3.87;;;11.30;99.90;;;;;;5070969;28;20170;-71
2022/12/25 07:28:01;;;;;;;7.60;5.07;;;11.20;99.90;;;;;;5072046;28;20186;-71
2022/12/25 07:30:27;;;;;;;5.10;4.60;;;11.20;99.90;;;;;;5072411;28;20170;-71
2022/12/25 07:32:53;;;;;;;4.60;4.20;;;11.30;99.90;;;;;;5070530;28;20188;-71
2022/12/25 07:35:19;;;;;;;6.00;4.67;;;11.20;99.90;;;;;;5072204;28;20408;-71
2022/12/25 07:37:44;;;;;;;5.30;4.27;;;11.10;99.90;;;;;;5072274;28;20216;-71
2022/12/25 07:40:10;;;;;;;6.13;4.00;;;11.00;99.90;;;;;;5072629;28;20162;-71
2022/12/25 07:42:35;;;;;;;6.83;4.77;;;11.10;99.90;;;;;;5072650;28;20674;-71
2022/12/25 07:45:01;;;;;;;6.97;4.13;;;11.10;99.90;;;;;;5072061;28;20174;-71
2022/12/25 07:47:27;;;;;;;5.40;4.23;;;11.10;99.90;;;;;;5071831;28;20285;-71
2022/12/25 07:49:52;;;;;;;6.43;4.40;;;11.20;99.90;;;;;;5070609;28;20628;-72
2022/12/25 07:52:18;;;;;;;5.77;5.17;;;11.30;99.90;;;;;;5071951;28;20189;-72
2022/12/25 07:54:43;;;;;;;5.40;4.10;;;11.10;99.90;;;;;;5072077;28;20189;-71
2022/12/25 07:57:09;;;;;;;5.50;3.80;;;11.00;99.90;;;;;;5071849;28;20166;-71
2022/12/25 07:59:34;;;;;;;5.33;4.00;;;10.90;99.90;;;;;;5070310;28;20178;-72
2022/12/25 08:02:00;;;;;;;3.63;3.20;;;11.00;99.90;;;;;;5071510;28;20190;-72
2022/12/25 08:04:25;;;;;;;5.97;4.23;;;11.10;99.90;;;;;;5071562;28;20169;-71
2022/12/25 08:06:51;;;;;;;4.27;3.73;;;11.10;99.90;;;;;;5072308;28;20189;-71
2022/12/25 08:09:16;;;;;;;14.67;6.53;;;11.20;99.90;;;;;;5072043;28;20189;-71
2022/12/25 08:11:46;;;;;;;14.90;8.37;;;11.20;99.90;;;;;;5070546;28;20265;-71
2022/12/25 08:14:11;;;;;;;6.50;4.90;;;11.20;99.90;;;;;;5071775;28;20180;-71
2022/12/25 08:16:40;;;;;;;6.10;5.33;;;11.30;99.90;;;;;;5071967;28;20413;-71
2022/12/25 08:19:06;;;;;;;5.80;4.27;;;11.30;99.90;;;;;;5071787;28;20194;-71
2022/12/25 08:21:32;;;;;;;6.23;4.50;;;11.30;99.90;;;;;;5071897;28;20452;-71
2022/12/25 08:23:57;;;;;;;5.53;4.30;;;11.30;99.90;;;;;;5070398;28;20411;-71
2022/12/25 08:26:23;;;;;;;4.53;4.13;;;11.30;99.90;;;;;;5073629;28;20648;-71
2022/12/25 08:28:49;;;;;;;5.00;3.63;;;11.30;99.90;;;;;;5075129;28;20186;-71
2022/12/25 08:31:20;;;;;;;4.03;3.60;;;11.40;99.90;;;;;;5075366;28;20174;-71
2022/12/25 08:33:47;;;;;;;6.83;3.80;;;11.30;99.90;;;;;;5075524;28;20387;-71
2022/12/25 08:36:15;;;;;;;4.43;3.40;;;11.30;99.90;;;;;;5075051;28;20412;-72
2022/12/25 08:38:40;;;;;;;3.70;3.33;;;11.30;99.90;;;;;;5074745;28;20460;-71
2022/12/25 08:41:07;;;;;;;6.13;4.60;;;11.30;99.90;;;;;;5074361;28;20471;-71
2022/12/25 08:43:32;;;;;;;3.67;3.37;;;11.20;99.90;;;;;;5073476;28;20181;-72
2022/12/25 08:45:58;;;;;;;5.27;4.00;;;11.30;99.90;;;;;;5075235;28;20404;-71
2022/12/25 08:48:23;;;;;;;8.90;4.10;;;11.30;99.90;;;;;;5074919;28;20205;-71
2022/12/25 08:50:51;;;;;;;4.47;3.90;;;11.40;99.90;;;;;;5074159;28;20174;-72
2022/12/25 08:53:17;;;;;;;5.07;4.57;;;11.50;99.90;;;;;;5074928;28;20198;-72
2022/12/25 08:55:43;;;;;;;5.77;4.77;;;11.50;99.90;;;;;;5073478;28;20413;-72
2022/12/25 08:58:09;;;;;;;4.70;3.57;;;11.50;99.90;;;;;;5074696;28;20455;-72
2022/12/25 09:00:35;;;;;;;4.33;4.03;;;11.50;99.90;;;;;;5074634;28;20451;-71
2022/12/25 09:03:01;;;;;;;5.47;4.70;;;11.40;99.90;;;;;;5074863;28;20423;-70
2022/12/25 09:05:26;;;;;;;4.60;4.13;;;11.40;99.90;;;;;;5074256;28;20172;-70
2022/12/25 09:07:52;;;;;;;4.90;3.70;;;11.30;99.90;;;;;;5074575;28;20683;-71
2022/12/25 09:10:18;;;;;;;5.00;4.20;;;11.20;99.90;;;;;;5074488;28;20164;-71
2022/12/25 09:12:43;;;;;;;4.00;3.47;;;11.20;99.90;;;;;;5074341;28;20246;-71
2022/12/25 09:15:09;;;;;;;4.00;3.70;;;11.10;99.90;;;;;;5074339;28;20164;-71
2022/12/25 09:17:35;;;;;;;4.10;3.70;;;11.20;99.90;;;;;;5074287;28;20214;-71
2022/12/25 09:20:00;;;;;;;5.03;4.53;;;11.30;99.90;;;;;;5073752;28;20188;-71
2022/12/25 09:22:26;;;;;;;4.67;4.27;;;11.40;99.90;;;;;;5074019;28;20205;-71
2022/12/25 09:24:51;;;;;;;3.87;3.50;;;11.40;99.90;;;;;;5069944;28;20172;-72
2022/12/25 09:27:17;;;;;;;3.57;3.27;;;11.40;99.90;;;;;;5074496;28;20553;-71
2022/12/25 09:29:42;;;;;;;3.10;2.90;;;11.40;99.90;;;;;;5074364;28;20167;-72
2022/12/25 09:32:08;;;;;;;4.30;3.40;;;11.40;99.90;;;;;;5074100;28;20184;-71
2022/12/25 09:34:34;;;;;;;3.97;3.57;;;11.40;99.90;;;;;;5073639;28;20170;-71
2022/12/25 09:37:00;;;;;;;3.40;3.00;;;11.30;99.90;;;;;;5073051;28;20166;-71
2022/12/25 09:39:26;;;;;;;4.10;3.03;;;11.30;99.90;;;;;;5074054;28;20397;-71
2022/12/25 09:41:59;;;;;;;3.63;3.13;;;11.30;99.90;;;;;;5072698;28;20497;-71
2022/12/25 09:44:29;;;;;;;3.33;2.80;;;11.40;99.90;;;;;;5074151;28;20165;-71
2022/12/25 09:47:00;;;;;;;4.00;3.60;;;11.40;99.90;;;;;;5072479;28;20780;-72
2022/12/25 09:49:38;;;;;;;3.47;3.17;;;11.40;99.90;;;;;;5078653;22;20483;-70
2022/12/25 09:52:42;;;;;;;2.77;2.57;;;11.40;99.90;;;;;;5054433;28;20385;-70
2022/12/25 09:55:18;;;;;;;4.67;2.53;;;11.40;99.90;;;;;;5049096;28;20413;-70
2022/12/25 09:57:48;;;;;;;3.43;3.00;;;11.60;99.90;;;;;;5036405;28;20462;-70
2022/12/25 10:00:17;;;;;;;3.10;2.80;;;11.60;99.90;;;;;;5054142;28;20403;-70
2022/12/25 10:03:06;;;;;;;4.93;2.90;;;11.60;99.90;;;;;;5036222;28;20430;-70
2022/12/25 10:05:47;;;;;;;3.77;3.43;;;11.40;99.90;;;;;;5053723;28;20385;-70
2022/12/25 10:08:32;;;;;;;4.90;3.40;;;11.50;99.90;;;;;;5054647;28;20619;-70
2022/12/25 10:11:06;;;;;;;4.60;3.20;;;11.50;99.90;;;;;;5054416;28;20387;-70
2022/12/25 10:13:41;;;;;;;3.67;3.37;;;11.50;99.90;;;;;;5054195;28;20459;-70
2022/12/25 10:16:40;;;;;;;3.80;3.50;;;11.60;99.90;;;;;;5054211;28;20389;-70
2022/12/25 10:19:16;;;;;;;4.40;2.80;;;11.70;99.90;;;;;;5053590;28;20421;-70
2022/12/25 10:21:42;;;;;;;5.73;3.33;;;11.70;99.90;;;;;;5053462;28;20447;-70
2022/12/25 10:24:27;;;;;;;2.67;2.43;;;11.80;99.90;;;;;;5054150;28;20409;-70
2022/12/25 10:26:55;;;;;;;3.53;3.23;;;11.80;99.90;;;;;;5054003;28;20572;-70
2022/12/25 10:29:20;;;;;;;4.30;3.53;;;11.90;99.90;;;;;;5052233;28;20456;-70
2022/12/25 10:31:51;;;;;;;3.40;3.07;;;12.00;99.90;;;;;;5053959;28;20414;-70
2022/12/25 10:34:16;;;;;;;5.03;2.50;;;12.10;99.90;;;;;;5053723;28;20416;-70
2022/12/25 10:36:44;;;;;;;4.13;2.70;;;12.40;99.90;;;;;;5053481;28;20413;-70
2022/12/25 10:39:27;;;;;;;6.00;4.37;;;12.60;99.90;;;;;;5053428;28;20237;-70
2022/12/25 10:42:05;;;;;;;3.17;2.73;;;12.90;99.90;;;;;;5033079;28;20950;-70
2022/12/25 10:44:33;;;;;;;3.30;2.80;;;13.10;99.90;;;;;;5033918;28;20401;-70
2022/12/25 10:47:00;;;;;;;3.20;2.83;;;13.40;99.90;;;;;;5033480;28;20419;-70
2022/12/25 10:49:35;;;;;;;5.70;3.67;;;13.50;99.90;;;;;;5036395;28;20446;-70
2022/12/25 10:52:02;;;;;;;3.73;3.30;;;13.70;99.90;;;;;;5053372;28;20834;-70
2022/12/25 10:54:35;;;;;;;9.07;5.10;;;13.90;99.90;;;;;;5035512;28;20417;-70
2022/12/25 10:57:06;;;;;;;7.53;5.00;;;14.00;99.90;;;;;;5053575;28;20434;-70
2022/12/25 10:59:42;;;;;;;6.70;3.60;;;14.40;99.90;;;;;;5053499;28;20514;-69
2022/12/25 11:02:27;;;;;;;5.47;3.73;;;15.30;99.90;;;;;;5053635;28;20806;-70
2022/12/25 11:05:06;;;;;;;3.77;3.23;;;16.00;99.90;;;;;;5053218;28;20390;-70
2022/12/25 11:07:45;;;;;;;4.10;3.13;;;16.80;99.90;;;;;;5053508;28;20942;-69
2022/12/25 11:10:40;;;;;;;6.27;3.50;;;17.30;99.90;;;;;;5053907;28;20400;-70
2022/12/25 11:13:16;;;;;;;6.50;3.57;;;17.40;99.90;;;;;;5051597;28;20416;-69
2022/12/25 11:15:43;;;;;;;5.47;4.27;;;17.30;99.90;;;;;;5035222;28;20451;-69
2022/12/25 11:18:32;;;;;;;5.90;2.73;;;17.10;99.90;;;;;;5052957;28;20432;-69
2022/12/25 11:20:59;;;;;;;6.30;4.20;;;16.40;99.90;;;;;;5052411;28;20501;-70
2022/12/25 11:23:27;;;;;;;5.27;3.53;;;16.40;99.90;;;;;;5052910;28;20983;-69
2022/12/25 11:25:57;;;;;;;5.87;4.00;;;17.20;99.90;;;;;;5052796;28;20455;-69
2022/12/25 11:28:24;;;;;;;4.30;2.80;;;18.70;99.90;;;;;;5034833;28;20523;-69
2022/12/25 11:30:55;;;;;;;4.93;3.20;;;18.40;99.90;;;;;;5038379;28;20526;-69
2022/12/25 11:33:27;;;;;;;4.03;3.13;;;18.10;99.90;;;;;;5033104;28;20888;-70
2022/12/25 11:35:56;;;;;;;5.13;4.50;;;18.30;99.90;;;;;;5014588;28;20441;-69
2022/12/25 11:38:23;;;;;;;8.83;5.37;;;18.60;99.90;;;;;;5015096;28;20434;-69
2022/12/25 11:40:53;;;;;;;3.50;2.60;;;18.10;99.90;;;;;;5032796;28;20944;-69
2022/12/25 11:43:39;;;;;;;5.57;4.27;;;18.30;99.90;;;;;;5032799;28;20554;-69
2022/12/25 11:46:17;;;;;;;3.20;2.60;;;18.60;99.90;;;;;;5014685;28;20406;-69
2022/12/25 11:48:54;;;;;;;4.30;3.20;;;19.20;99.90;;;;;;5032634;28;20454;-70
2022/12/25 11:51:24;;;;;;;5.30;3.27;;;20.30;99.90;;;;;;5047104;28;20413;-70
2022/12/25 11:53:53;;;;;;;4.10;3.47;;;21.10;99.90;;;;;;5052539;28;20493;-70
2022/12/25 11:56:25;;;;;;;3.10;2.80;;;22.10;99.90;;;;;;5052753;28;20405;-70
2022/12/25 11:58:58;;;;;;;2.23;1.80;;;22.20;99.90;;;;;;5034510;28;20451;-70
2022/12/25 12:01:42;;;;;;;1.90;1.73;;;21.10;99.90;;;;;;5055424;28;20429;-70
2022/12/25 12:04:22;;;;;;;4.50;2.53;;;21.50;99.90;;;;;;5056695;28;20393;-69
2022/12/25 12:07:07;;;;;;;2.97;2.50;;;22.00;99.90;;;;;;5037993;28;20483;-69
2022/12/25 12:09:41;;;;;;;2.23;1.50;;;23.30;99.90;;;;;;5038088;28;20789;-70
2022/12/25 12:12:14;;;;;;;2.27;1.97;;;23.80;98.80;;;;;;5054673;28;20431;-70
2022/12/25 12:14:58;;;;;;;2.23;1.80;;;24.80;98.00;;;;;;5056119;28;20480;-70
2022/12/25 12:17:23;;;;;;;1.70;1.27;;;24.30;96.80;;;;;;5038374;28;20409;-69
2022/12/25 12:19:50;;;;;;;2.23;1.80;;;24.40;96.60;;;;;;5056334;28;20405;-70
2022/12/25 12:22:26;;;;;;;1.40;1.30;;;24.40;96.20;;;;;;5055845;28;20194;-70
2022/12/25 12:24:58;;;;;;;1.37;1.20;;;23.60;96.80;;;;;;5055863;28;20393;-68
2022/12/25 12:27:37;;;;;;;1.70;1.47;;;23.20;97.00;;;;;;5055852;28;20385;-70
2022/12/25 12:30:06;;;;;;;2.57;2.20;;;22.90;97.20;;;;;;5056177;28;20527;-69
2022/12/25 12:32:46;;;;;;;2.20;2.00;;;21.70;98.50;;;;;;5037826;28;20428;-69
2022/12/25 12:35:20;;;;;;;3.17;2.87;;;20.60;99.90;;;;;;5055548;28;20402;-69
2022/12/25 12:37:51;;;;;;;2.00;1.80;;;19.90;99.90;;;;;;5055727;28;20431;-69
2022/12/25 12:40:25;;;;;;;3.20;1.97;;;19.00;99.90;;;;;;5055938;28;20483;-70
2022/12/25 12:42:51;;;;;;;2.43;1.83;;;18.50;99.90;;;;;;5055639;28;20546;-69
2022/12/25 12:45:24;;;;;;;2.30;2.10;;;18.30;99.90;;;;;;5055694;28;20410;-69
2022/12/25 12:47:51;;;;;;;1.93;1.47;;;18.40;99.90;;;;;;5053989;28;20461;-70
2022/12/25 12:50:36;;;;;;;2.63;1.60;;;18.50;99.90;;;;;;5040638;28;20831;-70
2022/12/25 12:53:20;;;;;;;2.20;2.00;;;18.20;99.90;;;;;;5056100;28;20426;-69
2022/12/25 12:55:46;;;;;;;2.87;2.00;;;18.00;99.90;;;;;;5055759;28;20416;-70
2022/12/25 12:58:32;;;;;;;2.93;2.00;;;17.60;99.90;;;;;;5055712;28;20417;-69
2022/12/25 13:01:04;;;;;;;2.40;2.20;;;17.20;99.90;;;;;;5055472;28;20251;-69
2022/12/25 13:03:41;;;;;;;2.30;2.10;;;17.00;99.90;;;;;;5055557;28;20392;-69
2022/12/25 13:06:15;;;;;;;2.70;2.03;;;16.50;99.90;;;;;;5054935;28;20397;-69
2022/12/25 13:09:19;;;;;;;2.03;1.83;;;16.50;99.90;;;;;;5055306;28;20424;-69
2022/12/25 13:11:44;;;;;;;2.07;1.87;;;16.50;99.90;;;;;;5053897;28;20487;-69
2022/12/25 13:14:19;;;;;;;2.47;1.90;;;16.10;99.90;;;;;;5055475;28;20444;-69
2022/12/25 13:16:48;;;;;;;2.20;2.00;;;16.20;99.90;;;;;;5055181;28;20191;-70
2022/12/25 13:19:23;;;;;;;3.23;2.20;;;16.00;99.90;;;;;;5055016;28;20527;-69
2022/12/25 13:21:56;;;;;;;5.83;2.00;;;15.90;99.90;;;;;;5054539;28;20813;-70
2022/12/25 13:24:25;;;;;;;4.10;2.40;;;15.60;99.90;;;;;;5054903;28;20428;-70
2022/12/25 13:26:51;;;;;;;3.83;2.13;;;15.50;99.90;;;;;;5055295;28;20407;-69
2022/12/25 13:29:30;;;;;;;3.20;2.30;;;15.30;99.90;;;;;;5055774;28;20436;-69
2022/12/25 13:31:57;;;;;;;2.87;2.47;;;15.20;99.90;;;;;;5055749;28;20420;-70
2022/12/25 13:34:39;;;;;;;2.60;2.13;;;15.10;99.90;;;;;;5055033;28;20462;-69
2022/12/25 13:37:13;;;;;;;3.50;2.37;;;15.00;99.90;;;;;;5054415;28;20486;-70
2022/12/25 13:39:54;;;;;;;2.30;2.10;;;15.00;99.90;;;;;;5047446;28;20938;-70
2022/12/25 13:42:29;;;;;;;2.30;2.10;;;14.90;99.90;;;;;;5034718;28;20445;-70
2022/12/25 13:44:59;;;;;;;3.70;2.60;;;14.90;99.90;;;;;;5016952;28;20424;-70
2022/12/25 13:47:37;;;;;;;2.60;2.40;;;14.80;99.90;;;;;;5034878;28;20407;-70
2022/12/25 13:50:20;;;;;;;3.07;2.37;;;14.80;99.90;;;;;;5037557;28;20503;-70
2022/12/25 13:52:46;;;;;;;2.00;1.83;;;14.70;99.90;;;;;;5036362;28;20407;-69
2022/12/25 13:55:18;;;;;;;2.90;2.03;;;14.70;99.90;;;;;;5054401;28;20414;-69
2022/12/25 13:57:59;;;;;;;2.80;1.87;;;14.60;99.90;;;;;;5054545;28;20206;-69
2022/12/25 14:00:44;;;;;;;3.10;1.80;;;14.70;99.90;;;;;;5054552;28;20395;-70
2022/12/25 14:03:25;;;;;;;2.10;1.90;;;14.40;99.90;;;;;;5054508;28;20398;-70
2022/12/25 14:05:58;;;;;;;5.00;2.00;;;14.40;99.90;;;;;;5054080;28;20389;-70
2022/12/25 14:08:27;;;;;;;3.63;1.70;;;14.50;99.90;;;;;;5055013;28;20476;-70
2022/12/25 14:10:54;;;;;;;2.60;2.00;;;14.50;99.90;;;;;;5054240;28;20405;-69
2022/12/25 14:13:23;;;;;;;2.77;2.30;;;14.50;99.90;;;;;;5036118;28;20420;-70
2022/12/25 14:15:50;;;;;;;3.20;1.90;;;14.40;99.90;;;;;;5053961;28;20415;-69
2022/12/25 14:18:18;;;;;;;2.20;2.00;;;14.50;99.90;;;;;;5053997;28;20431;-69
2022/12/25 14:20:57;;;;;;;4.53;2.23;;;14.50;99.90;;;;;;5053198;28;20441;-68
2022/12/25 14:23:23;;;;;;;1.63;1.53;;;14.40;99.90;;;;;;5035610;28;20420;-70
2022/12/25 14:25:49;;;;;;;1.70;1.60;;;14.30;99.90;;;;;;5053809;28;20402;-70
2022/12/25 14:28:22;;;;;;;3.90;1.67;;;14.30;99.90;;;;;;5053665;28;20439;-69
2022/12/25 14:30:48;;;;;;;1.80;1.70;;;14.30;99.90;;;;;;5054134;28;20207;-71
2022/12/25 14:33:17;;;;;;;3.03;2.03;;;14.30;99.90;;;;;;5053907;28;20441;-71
2022/12/25 14:35:43;;;;;;;2.97;1.90;;;14.20;99.90;;;;;;5053311;28;20181;-71
2022/12/25 14:38:34;;;;;;;2.53;2.30;;;14.00;99.90;;;;;;5035798;28;20437;-70
2022/12/25 14:41:32;;;;;;;3.10;2.30;;;13.90;99.90;;;;;;5053385;28;20950;-71